sensor_id;sensor_type;location;lat;lon;timestamp;pressure;altitude;pressure_sealevel;temperature;humidity
36502;BME280;25393;46.108;3.390;2023-02-28T00:01:13;98224.56;;;1.10;55.85
36502;BME280;25393;46.108;3.390;2023-02-28T00:03:41;98227.63;;;1.04;56.14
36502;BME280;25393;46.108;3.390;2023-02-28T00:06:08;98236.28;;;1.04;56.54
36502;BME280;25393;46.108;3.390;2023-02-28T00:08:38;98235.22;;;1.07;56.27
36502;BME280;25393;46.108;3.390;2023-02-28T00:11:11;98224.59;;;0.97;57.00
36502;BME280;25393;46.108;3.390;2023-02-28T00:13:40;98234.50;;;0.92;56.78
36502;BME280;25393;46.108;3.390;2023-02-28T00:16:10;98239.53;;;0.95;57.79
36502;BME280;25393;46.108;3.390;2023-02-28T00:18:38;98246.19;;;0.99;57.62
36502;BME280;25393;46.108;3.390;2023-02-28T00:21:05;98251.75;;;1.07;57.48
36502;BME280;25393;46.108;3.390;2023-02-28T00:23:32;98252.56;;;1.20;56.91
36502;BME280;25393;46.108;3.390;2023-02-28T00:25:59;98236.06;;;1.07;56.76
36502;BME280;25393;46.108;3.390;2023-02-28T00:28:25;98251.19;;;1.27;56.69
36502;BME280;25393;46.108;3.390;2023-02-28T00:30:53;98250.56;;;1.24;57.06
36502;BME280;25393;46.108;3.390;2023-02-28T00:33:24;98249.00;;;1.21;57.08
36502;BME280;25393;46.108;3.390;2023-02-28T00:35:50;98256.19;;;1.30;57.04
36502;BME280;25393;46.108;3.390;2023-02-28T00:38:17;98256.31;;;1.29;57.76
36502;BME280;25393;46.108;3.390;2023-02-28T00:40:43;98250.34;;;1.27;57.64
36502;BME280;25393;46.108;3.390;2023-02-28T00:43:10;98252.56;;;1.33;57.78
36502;BME280;25393;46.108;3.390;2023-02-28T00:45:36;98252.56;;;1.33;57.76
36502;BME280;25393;46.108;3.390;2023-02-28T00:48:03;98252.56;;;1.33;57.53
36502;BME280;25393;46.108;3.390;2023-02-28T00:50:30;98232.63;;;1.19;57.92
36502;BME280;25393;46.108;3.390;2023-02-28T00:52:57;98242.44;;;1.28;57.79
36502;BME280;25393;46.108;3.390;2023-02-28T00:55:24;98247.22;;;1.34;57.17
36502;BME280;25393;46.108;3.390;2023-02-28T00:57:56;98247.44;;;1.31;57.82
36502;BME280;25393;46.108;3.390;2023-02-28T01:00:22;98251.72;;;1.32;58.42
36502;BME280;25393;46.108;3.390;2023-02-28T01:02:49;98256.31;;;1.29;58.13
36502;BME280;25393;46.108;3.390;2023-02-28T01:05:16;98251.44;;;1.12;58.43
36502;BME280;25393;46.108;3.390;2023-02-28T01:07:42;98249.53;;;1.14;58.33
36502;BME280;25393;46.108;3.390;2023-02-28T01:10:09;98245.88;;;1.16;59.13
36502;BME280;25393;46.108;3.390;2023-02-28T01:12:36;98250.16;;;1.17;58.70
36502;BME280;25393;46.108;3.390;2023-02-28T01:15:03;98239.63;;;1.06;58.55
36502;BME280;25393;46.108;3.390;2023-02-28T01:17:29;98236.19;;;1.18;58.29
36502;BME280;25393;46.108;3.390;2023-02-28T01:19:56;98241.69;;;1.14;58.81
36502;BME280;25393;46.108;3.390;2023-02-28T01:22:22;98235.97;;;1.21;59.03
36502;BME280;25393;46.108;3.390;2023-02-28T01:24:49;98231.97;;;1.28;58.40
36502;BME280;25393;46.108;3.390;2023-02-28T01:27:16;98243.97;;;1.31;59.00
36502;BME280;25393;46.108;3.390;2023-02-28T01:29:42;98240.13;;;1.36;58.52
36502;BME280;25393;46.108;3.390;2023-02-28T01:32:09;98230.09;;;1.18;59.13
36502;BME280;25393;46.108;3.390;2023-02-28T01:34:35;98237.84;;;1.19;59.01
36502;BME280;25393;46.108;3.390;2023-02-28T01:37:02;98246.81;;;1.40;58.49
36502;BME280;25393;46.108;3.390;2023-02-28T01:39:29;98239.16;;;1.37;59.05
36502;BME280;25393;46.108;3.390;2023-02-28T01:41:56;98236.28;;;1.29;59.65
36502;BME280;25393;46.108;3.390;2023-02-28T01:44:57;98241.47;;;1.42;59.54
36502;BME280;25393;46.108;3.390;2023-02-28T01:47:31;98246.69;;;1.42;58.65
36502;BME280;25393;46.108;3.390;2023-02-28T01:50:01;98237.41;;;1.25;59.23
36502;BME280;25393;46.108;3.390;2023-02-28T01:52:28;98245.25;;;1.25;59.65
36502;BME280;25393;46.108;3.390;2023-02-28T01:55:00;98252.66;;;1.31;59.95
36502;BME280;25393;46.108;3.390;2023-02-28T01:57:33;98243.59;;;1.37;60.39
36502;BME280;25393;46.108;3.390;2023-02-28T02:00:12;98259.56;;;1.32;59.70
36502;BME280;25393;46.108;3.390;2023-02-28T02:02:46;98259.66;;;1.31;60.30
36502;BME280;25393;46.108;3.390;2023-02-28T02:05:19;98250.03;;;1.31;60.52
36502;BME280;25393;46.108;3.390;2023-02-28T02:07:51;98251.41;;;1.24;60.66
36502;BME280;25393;46.108;3.390;2023-02-28T02:10:27;98252.56;;;1.20;60.35
36502;BME280;25393;46.108;3.390;2023-02-28T02:13:05;98261.84;;;1.24;60.97
36502;BME280;25393;46.108;3.390;2023-02-28T02:18:20;98248.19;;;1.21;60.25
36502;BME280;25393;46.108;3.390;2023-02-28T02:30:11;98268.66;;;1.02;60.68
36502;BME280;25393;46.108;3.390;2023-02-28T02:33:10;98260.22;;;0.98;60.66
36502;BME280;25393;46.108;3.390;2023-02-28T02:41:12;98256.84;;;0.96;61.71
36502;BME280;25393;46.108;3.390;2023-02-28T02:43:54;98247.88;;;1.00;61.10
36502;BME280;25393;46.108;3.390;2023-02-28T02:46:39;98238.06;;;0.91;61.92
36502;BME280;25393;46.108;3.390;2023-02-28T02:49:13;98231.47;;;0.85;61.93
36502;BME280;25393;46.108;3.390;2023-02-28T02:51:42;98239.94;;;0.89;61.97
36502;BME280;25393;46.108;3.390;2023-02-28T02:54:27;98246.19;;;0.86;62.07
36502;BME280;25393;46.108;3.390;2023-02-28T02:57:02;98251.22;;;1.02;62.27
36502;BME280;25393;46.108;3.390;2023-02-28T02:59:35;98250.06;;;1.06;62.00
36502;BME280;25393;46.108;3.390;2023-02-28T03:02:06;98237.66;;;0.84;61.48
36502;BME280;25393;46.108;3.390;2023-02-28T03:04:42;98248.19;;;0.95;60.56
36502;BME280;25393;46.108;3.390;2023-02-28T03:07:09;98251.00;;;0.80;61.39
36502;BME280;25393;46.108;3.390;2023-02-28T03:09:36;98261.66;;;0.77;61.83
36502;BME280;25393;46.108;3.390;2023-02-28T03:12:08;98257.66;;;0.71;61.52
36502;BME280;25393;46.108;3.390;2023-02-28T03:14:50;98260.47;;;0.68;62.72
36502;BME280;25393;46.108;3.390;2023-02-28T03:23:01;98263.63;;;0.73;62.40
36502;BME280;25393;46.108;3.390;2023-02-28T03:25:42;98267.16;;;0.72;61.84
36502;BME280;25393;46.108;3.390;2023-02-28T03:28:36;98268.44;;;0.67;62.16
36502;BME280;25393;46.108;3.390;2023-02-28T03:33:47;98276.56;;;0.75;61.95
36502;BME280;25393;46.108;3.390;2023-02-28T03:36:30;98264.34;;;0.63;61.85
36502;BME280;25393;46.108;3.390;2023-02-28T03:39:14;98279.03;;;0.64;62.23
36502;BME280;25393;46.108;3.390;2023-02-28T03:41:46;98272.69;;;0.68;61.90
36502;BME280;25393;46.108;3.390;2023-02-28T03:44:21;98247.94;;;0.61;61.93
36502;BME280;25393;46.108;3.390;2023-02-28T03:47:03;98271.66;;;0.70;61.74
36502;BME280;25393;46.108;3.390;2023-02-28T03:49:40;98267.66;;;0.65;62.04
36502;BME280;25393;46.108;3.390;2023-02-28T03:52:09;98272.47;;;0.71;61.36
36502;BME280;25393;46.108;3.390;2023-02-28T03:54:42;98270.28;;;0.65;62.54
36502;BME280;25393;46.108;3.390;2023-02-28T04:00:08;98261.41;;;0.55;62.67
36502;BME280;25393;46.108;3.390;2023-02-28T04:02:36;98255.00;;;0.46;62.71
36502;BME280;25393;46.108;3.390;2023-02-28T04:05:02;98272.56;;;0.57;62.74
36502;BME280;25393;46.108;3.390;2023-02-28T04:07:31;98277.97;;;0.54;62.64
36502;BME280;25393;46.108;3.390;2023-02-28T04:09:58;98271.69;;;0.43;63.30
36502;BME280;25393;46.108;3.390;2023-02-28T04:12:25;98279.22;;;0.48;63.42
36502;BME280;25393;46.108;3.390;2023-02-28T04:14:52;98270.47;;;0.49;63.00
36502;BME280;25393;46.108;3.390;2023-02-28T04:17:18;98265.78;;;0.54;62.79
36502;BME280;25393;46.108;3.390;2023-02-28T04:19:45;98277.38;;;0.63;62.91
36502;BME280;25393;46.108;3.390;2023-02-28T04:22:11;98256.47;;;0.50;63.56
36502;BME280;25393;46.108;3.390;2023-02-28T04:24:38;98251.66;;;0.44;62.56
36502;BME280;25393;46.108;3.390;2023-02-28T04:27:08;98262.97;;;0.57;63.21
36502;BME280;25393;46.108;3.390;2023-02-28T04:29:38;98264.41;;;0.48;63.19
36502;BME280;25393;46.108;3.390;2023-02-28T04:32:07;98265.44;;;0.46;62.87
36502;BME280;25393;46.108;3.390;2023-02-28T04:34:34;98261.06;;;0.46;62.41
36502;BME280;25393;46.108;3.390;2023-02-28T04:37:03;98261.97;;;0.33;62.78
36502;BME280;25393;46.108;3.390;2023-02-28T04:39:40;98266.66;;;0.28;63.26
36502;BME280;25393;46.108;3.390;2023-02-28T04:42:07;98270.19;;;0.27;63.10
36502;BME280;25393;46.108;3.390;2023-02-28T04:44:34;98275.00;;;0.33;63.48
36502;BME280;25393;46.108;3.390;2023-02-28T04:47:00;98270.00;;;0.30;63.33
36502;BME280;25393;46.108;3.390;2023-02-28T04:49:26;98281.78;;;0.35;63.07
36502;BME280;25393;46.108;3.390;2023-02-28T04:51:53;98277.66;;;0.19;62.69
36502;BME280;25393;46.108;3.390;2023-02-28T04:54:20;98273.38;;;0.18;62.63
36502;BME280;25393;46.108;3.390;2023-02-28T04:56:46;98283.31;;;0.25;62.83
36502;BME280;25393;46.108;3.390;2023-02-28T04:59:14;98296.91;;;0.30;62.66
36502;BME280;25393;46.108;3.390;2023-02-28T05:01:45;98289.94;;;0.31;62.80
36502;BME280;25393;46.108;3.390;2023-02-28T05:04:12;98288.66;;;0.24;62.87
36502;BME280;25393;46.108;3.390;2023-02-28T05:06:39;98294.16;;;0.19;62.55
36502;BME280;25393;46.108;3.390;2023-02-28T05:09:05;98295.34;;;0.28;63.01
36502;BME280;25393;46.108;3.390;2023-02-28T05:11:35;98289.94;;;0.31;63.04
36502;BME280;25393;46.108;3.390;2023-02-28T05:14:07;98305.59;;;0.43;62.19
36502;BME280;25393;46.108;3.390;2023-02-28T05:16:35;98310.09;;;0.41;62.90
36502;BME280;25393;46.108;3.390;2023-02-28T05:19:02;98323.44;;;0.49;62.71
36502;BME280;25393;46.108;3.390;2023-02-28T05:21:31;98318.44;;;0.46;62.69
36502;BME280;25393;46.108;3.390;2023-02-28T05:24:00;98316.44;;;0.37;62.28
36502;BME280;25393;46.108;3.390;2023-02-28T05:26:27;98325.25;;;0.49;62.52
36502;BME280;25393;46.108;3.390;2023-02-28T05:28:54;98322.53;;;0.50;62.18
36502;BME280;25393;46.108;3.390;2023-02-28T05:31:21;98309.06;;;0.44;61.84
36502;BME280;25393;46.108;3.390;2023-02-28T05:33:48;98324.09;;;0.53;62.30
36502;BME280;25393;46.108;3.390;2023-02-28T05:36:15;98322.19;;;0.42;62.07
36502;BME280;25393;46.108;3.390;2023-02-28T05:38:41;98291.06;;;0.27;62.51
36502;BME280;25393;46.108;3.390;2023-02-28T05:41:09;98327.31;;;0.44;62.19
36502;BME280;25393;46.108;3.390;2023-02-28T05:43:37;98312.97;;;0.24;61.68
36502;BME280;25393;46.108;3.390;2023-02-28T05:46:08;98328.56;;;0.38;61.43
36502;BME280;25393;46.108;3.390;2023-02-28T05:48:37;98318.53;;;0.18;62.16
36502;BME280;25393;46.108;3.390;2023-02-28T05:51:08;98327.31;;;0.17;62.30
36502;BME280;25393;46.108;3.390;2023-02-28T05:53:36;98324.06;;;0.14;62.62
36502;BME280;25393;46.108;3.390;2023-02-28T05:56:03;98318.84;;;0.14;62.51
36502;BME280;25393;46.108;3.390;2023-02-28T05:58:30;98330.38;;;0.24;62.48
36502;BME280;25393;46.108;3.390;2023-02-28T06:00:58;98326.53;;;0.29;62.04
36502;BME280;25393;46.108;3.390;2023-02-28T06:03:25;98334.47;;;0.28;62.52
36502;BME280;25393;46.108;3.390;2023-02-28T06:05:52;98331.72;;;0.29;62.09
36502;BME280;25393;46.108;3.390;2023-02-28T06:08:18;98337.00;;;0.15;62.40
36502;BME280;25393;46.108;3.390;2023-02-28T06:10:45;98327.41;;;0.16;61.92
36502;BME280;25393;46.108;3.390;2023-02-28T06:13:12;98341.91;;;0.20;62.08
36502;BME280;25393;46.108;3.390;2023-02-28T06:15:39;98330.66;;;0.19;62.12
36502;BME280;25393;46.108;3.390;2023-02-28T06:18:08;98332.53;;;0.17;61.77
36502;BME280;25393;46.108;3.390;2023-02-28T06:20:34;98324.34;;;0.09;61.58
36502;BME280;25393;46.108;3.390;2023-02-28T06:23:02;98329.13;;;0.03;62.14
36502;BME280;25393;46.108;3.390;2023-02-28T06:25:28;98343.13;;;0.14;62.24
36502;BME280;25393;46.108;3.390;2023-02-28T06:27:55;98333.94;;;0.09;61.86
36502;BME280;25393;46.108;3.390;2023-02-28T06:30:22;98325.66;;;0.02;61.27
36502;BME280;25393;46.108;3.390;2023-02-28T06:32:53;98345.72;;;0.14;61.48
36502;BME280;25393;46.108;3.390;2023-02-28T06:35:21;98357.41;;;0.09;61.83
36502;BME280;25393;46.108;3.390;2023-02-28T06:37:47;98348.47;;;-0.02;61.70
36502;BME280;25393;46.108;3.390;2023-02-28T06:40:14;98356.56;;;0.08;62.33
36502;BME280;25393;46.108;3.390;2023-02-28T06:42:41;98356.91;;;0.16;61.64
36502;BME280;25393;46.108;3.390;2023-02-28T06:45:11;98361.50;;;0.13;62.03
36502;BME280;25393;46.108;3.390;2023-02-28T06:47:40;98349.81;;;0.18;61.56
36502;BME280;25393;46.108;3.390;2023-02-28T06:50:11;98362.03;;;0.18;61.69
36502;BME280;25393;46.108;3.390;2023-02-28T06:52:40;98361.13;;;0.05;61.99
36502;BME280;25393;46.108;3.390;2023-02-28T06:55:07;98350.81;;;0.03;62.03
36502;BME280;25393;46.108;3.390;2023-02-28T06:57:35;98360.19;;;0.06;61.69
36502;BME280;25393;46.108;3.390;2023-02-28T07:00:06;98361.03;;;0.06;62.35
36502;BME280;25393;46.108;3.390;2023-02-28T07:02:37;98356.34;;;0.11;61.62
36502;BME280;25393;46.108;3.390;2023-02-28T07:05:05;98346.13;;;0.08;61.60
36502;BME280;25393;46.108;3.390;2023-02-28T07:07:32;98343.63;;;0.07;62.12
36502;BME280;25393;46.108;3.390;2023-02-28T07:09:59;98349.94;;;0.17;61.59
36502;BME280;25393;46.108;3.390;2023-02-28T07:12:25;98359.03;;;0.24;60.64
36502;BME280;25393;46.108;3.390;2023-02-28T07:14:52;98361.38;;;0.14;61.04
36502;BME280;25393;46.108;3.390;2023-02-28T07:17:19;98362.78;;;0.20;61.51
36502;BME280;25393;46.108;3.390;2023-02-28T07:19:48;98361.84;;;0.21;61.30
36502;BME280;25393;46.108;3.390;2023-02-28T07:22:16;98381.06;;;0.32;60.65
36502;BME280;25393;46.108;3.390;2023-02-28T07:24:43;98385.09;;;0.38;60.82
36502;BME280;25393;46.108;3.390;2023-02-28T07:27:12;98368.88;;;0.33;60.70
36502;BME280;25393;46.108;3.390;2023-02-28T07:29:49;98367.59;;;0.26;61.67
36502;BME280;25393;46.108;3.390;2023-02-28T07:32:17;98382.69;;;0.35;61.04
36502;BME280;25393;46.108;3.390;2023-02-28T07:34:49;98379.88;;;0.38;60.66
36502;BME280;25393;46.108;3.390;2023-02-28T07:37:19;98383.97;;;0.42;60.74
36502;BME280;25393;46.108;3.390;2023-02-28T07:39:48;98389.41;;;0.52;61.17
36502;BME280;25393;46.108;3.390;2023-02-28T07:42:18;98381.25;;;0.43;60.67
36502;BME280;25393;46.108;3.390;2023-02-28T07:44:48;98397.41;;;0.63;60.43
36502;BME280;25393;46.108;3.390;2023-02-28T07:47:17;98368.00;;;0.46;60.85
36502;BME280;25393;46.108;3.390;2023-02-28T07:49:46;98401.16;;;0.71;60.28
36502;BME280;25393;46.108;3.390;2023-02-28T07:52:12;98396.22;;;0.81;60.37
36502;BME280;25393;46.108;3.390;2023-02-28T07:54:39;98388.69;;;0.89;60.25
36502;BME280;25393;46.108;3.390;2023-02-28T07:57:05;98384.81;;;1.09;60.53
36502;BME280;25393;46.108;3.390;2023-02-28T07:59:32;98384.09;;;1.19;59.91
36502;BME280;25393;46.108;3.390;2023-02-28T08:01:58;98381.03;;;1.13;58.46
36502;BME280;25393;46.108;3.390;2023-02-28T08:04:25;98392.22;;;1.27;57.75
36502;BME280;25393;46.108;3.390;2023-02-28T08:06:52;98383.97;;;1.21;58.39
36502;BME280;25393;46.108;3.390;2023-02-28T08:09:19;98389.53;;;1.41;58.01
36502;BME280;25393;46.108;3.390;2023-02-28T08:11:48;98371.66;;;1.35;57.84
36502;BME280;25393;46.108;3.390;2023-02-28T08:14:18;98393.94;;;1.54;57.28
36502;BME280;25393;46.108;3.390;2023-02-28T08:16:48;98400.09;;;1.65;56.80
36502;BME280;25393;46.108;3.390;2023-02-28T08:19:18;98385.84;;;1.69;57.13
36502;BME280;25393;46.108;3.390;2023-02-28T08:21:47;98392.97;;;1.92;56.23
36502;BME280;25393;46.108;3.390;2023-02-28T08:24:17;98374.56;;;1.81;56.74
36502;BME280;25393;46.108;3.390;2023-02-28T08:26:44;98369.53;;;1.91;56.75
36502;BME280;25393;46.108;3.390;2023-02-28T08:29:12;98401.19;;;2.24;55.37
36502;BME280;25393;46.108;3.390;2023-02-28T08:31:39;98358.63;;;2.10;54.69
36502;BME280;25393;46.108;3.390;2023-02-28T08:34:10;98402.19;;;2.34;55.26
36502;BME280;25393;46.108;3.390;2023-02-28T08:36:37;98404.50;;;2.39;55.94
36502;BME280;25393;46.108;3.390;2023-02-28T08:39:04;98407.06;;;2.51;55.51
36502;BME280;25393;46.108;3.390;2023-02-28T08:41:31;98391.97;;;2.55;54.81
36502;BME280;25393;46.108;3.390;2023-02-28T08:43:58;98376.59;;;2.50;54.98
36502;BME280;25393;46.108;3.390;2023-02-28T08:46:25;98377.44;;;2.51;53.99
36502;BME280;25393;46.108;3.390;2023-02-28T08:48:52;98396.66;;;2.63;54.13
36502;BME280;25393;46.108;3.390;2023-02-28T08:51:21;98420.13;;;2.51;54.58
36502;BME280;25393;46.108;3.390;2023-02-28T08:53:54;98419.84;;;2.43;53.70
36502;BME280;25393;46.108;3.390;2023-02-28T08:56:21;98416.59;;;2.40;55.04
36502;BME280;25393;46.108;3.390;2023-02-28T08:58:49;98416.28;;;2.44;55.27
36502;BME280;25393;46.108;3.390;2023-02-28T09:01:20;98420.03;;;2.53;54.89
36502;BME280;25393;46.108;3.390;2023-02-28T09:03:49;98424.44;;;2.53;54.68
36502;BME280;25393;46.108;3.390;2023-02-28T09:06:20;98421.41;;;2.46;55.67
36502;BME280;25393;46.108;3.390;2023-02-28T09:08:47;98399.41;;;2.25;55.89
36502;BME280;25393;46.108;3.390;2023-02-28T09:11:16;98403.13;;;2.33;55.46
36502;BME280;25393;46.108;3.390;2023-02-28T09:13:48;98431.47;;;2.76;55.02
36502;BME280;25393;46.108;3.390;2023-02-28T09:16:17;98403.00;;;2.71;54.39
36502;BME280;25393;46.108;3.390;2023-02-28T09:18:48;98407.91;;;2.76;53.04
36502;BME280;25393;46.108;3.390;2023-02-28T09:21:19;98436.06;;;2.96;53.34
36502;BME280;25393;46.108;3.390;2023-02-28T09:23:49;98442.50;;;2.92;54.00
36502;BME280;25393;46.108;3.390;2023-02-28T09:26:18;98434.75;;;2.90;53.68
36502;BME280;25393;46.108;3.390;2023-02-28T09:28:46;98434.44;;;2.95;54.04
36502;BME280;25393;46.108;3.390;2023-02-28T09:31:23;98434.41;;;3.19;53.34
36502;BME280;25393;46.108;3.390;2023-02-28T09:33:53;98422.19;;;3.07;53.13
36502;BME280;25393;46.108;3.390;2023-02-28T09:36:21;98434.69;;;3.03;53.55
36502;BME280;25393;46.108;3.390;2023-02-28T09:38:50;98429.81;;;2.98;53.90
36502;BME280;25393;46.108;3.390;2023-02-28T09:41:25;98442.59;;;3.14;53.57
36502;BME280;25393;46.108;3.390;2023-02-28T09:43:59;98437.16;;;3.28;53.02
36502;BME280;25393;46.108;3.390;2023-02-28T09:49:10;98433.47;;;3.31;52.51
36502;BME280;25393;46.108;3.390;2023-02-28T09:52:02;98447.97;;;3.47;52.73
36502;BME280;25393;46.108;3.390;2023-02-28T09:54:31;98457.94;;;3.42;52.87
36502;BME280;25393;46.108;3.390;2023-02-28T10:02:40;98450.13;;;3.53;52.03
36502;BME280;25393;46.108;3.390;2023-02-28T10:05:12;98452.78;;;3.65;52.06
36502;BME280;25393;46.108;3.390;2023-02-28T10:08:10;98451.56;;;3.58;51.91
36502;BME280;25393;46.108;3.390;2023-02-28T10:10:44;98468.69;;;3.50;51.93
36502;BME280;25393;46.108;3.390;2023-02-28T10:16:29;98454.50;;;3.99;51.56
36502;BME280;25393;46.108;3.390;2023-02-28T10:19:06;98450.22;;;4.20;50.95
36502;BME280;25393;46.108;3.390;2023-02-28T10:21:43;98454.28;;;4.46;50.42
36502;BME280;25393;46.108;3.390;2023-02-28T10:24:32;98452.97;;;4.95;50.71
36502;BME280;25393;46.108;3.390;2023-02-28T10:27:51;98440.38;;;5.41;48.82
36502;BME280;25393;46.108;3.390;2023-02-28T10:29:55;98448.50;;;5.91;46.70
36502;BME280;25393;46.108;3.390;2023-02-28T10:32:27;98450.28;;;6.11;47.39
36502;BME280;25393;46.108;3.390;2023-02-28T10:35:10;98444.81;;;6.33;46.48
36502;BME280;25393;46.108;3.390;2023-02-28T10:38:05;98445.38;;;6.86;46.82
36502;BME280;25393;46.108;3.390;2023-02-28T10:40:38;98444.81;;;6.73;45.08
36502;BME280;25393;46.108;3.390;2023-02-28T10:43:18;98444.03;;;6.82;45.33
36502;BME280;25393;46.108;3.390;2023-02-28T10:48:42;98443.66;;;6.57;45.61
36502;BME280;25393;46.108;3.390;2023-02-28T10:51:14;98451.94;;;6.82;45.04
36502;BME280;25393;46.108;3.390;2023-02-28T10:56:26;98420.59;;;7.08;44.69
36502;BME280;25393;46.108;3.390;2023-02-28T10:58:58;98441.72;;;7.27;43.30
36502;BME280;25393;46.108;3.390;2023-02-28T11:01:42;98438.06;;;7.28;44.33
36502;BME280;25393;46.108;3.390;2023-02-28T11:04:33;98413.78;;;7.25;43.33
36502;BME280;25393;46.108;3.390;2023-02-28T11:09:34;98432.28;;;7.34;43.91
36502;BME280;25393;46.108;3.390;2023-02-28T11:12:04;98394.81;;;7.31;43.27
36502;BME280;25393;46.108;3.390;2023-02-28T11:14:36;98398.41;;;7.49;43.84
36502;BME280;25393;46.108;3.390;2023-02-28T11:17:35;98413.94;;;7.23;44.21
36502;BME280;25393;46.108;3.390;2023-02-28T11:20:07;98409.66;;;7.03;43.88
36502;BME280;25393;46.108;3.390;2023-02-28T11:22:47;98415.88;;;7.40;45.10
36502;BME280;25393;46.108;3.390;2023-02-28T11:25:26;98417.41;;;7.62;43.41
36502;BME280;25393;46.108;3.390;2023-02-28T11:27:59;98405.03;;;7.53;42.91
36502;BME280;25393;46.108;3.390;2023-02-28T11:30:37;98417.97;;;7.56;43.84
36502;BME280;25393;46.108;3.390;2023-02-28T11:33:23;98411.13;;;7.73;43.79
36502;BME280;25393;46.108;3.390;2023-02-28T11:35:55;98403.13;;;8.01;42.85
36502;BME280;25393;46.108;3.390;2023-02-28T11:38:26;98399.41;;;7.94;42.29
36502;BME280;25393;46.108;3.390;2023-02-28T11:49:17;98399.06;;;8.07;40.62
36502;BME280;25393;46.108;3.390;2023-02-28T11:55:01;98385.47;;;7.56;43.98
36502;BME280;25393;46.108;3.390;2023-02-28T11:57:53;98399.06;;;7.70;42.57
36502;BME280;25393;46.108;3.390;2023-02-28T12:03:36;98399.69;;;7.82;43.99
36502;BME280;25393;46.108;3.390;2023-02-28T12:08:56;98391.28;;;8.15;43.98
36502;BME280;25393;46.108;3.390;2023-02-28T12:16:55;98369.66;;;8.02;42.10
36502;BME280;25393;46.108;3.390;2023-02-28T12:20:02;98380.59;;;7.70;42.92
36502;BME280;25393;46.108;3.390;2023-02-28T12:22:32;98360.94;;;7.26;44.11
36502;BME280;25393;46.108;3.390;2023-02-28T12:27:41;98343.88;;;6.73;45.17
36502;BME280;25393;46.108;3.390;2023-02-28T12:30:22;98373.44;;;7.24;44.04
36502;BME280;25393;46.108;3.390;2023-02-28T12:33:06;98369.25;;;7.41;43.82
36502;BME280;25393;46.108;3.390;2023-02-28T12:35:41;98364.72;;;7.14;43.36
36502;BME280;25393;46.108;3.390;2023-02-28T12:38:19;98338.31;;;6.76;44.45
36502;BME280;25393;46.108;3.390;2023-02-28T12:40:57;98361.34;;;6.74;45.32
36502;BME280;25393;46.108;3.390;2023-02-28T12:43:37;98354.34;;;6.34;45.30
36502;BME280;25393;46.108;3.390;2023-02-28T12:46:14;98370.22;;;6.14;45.29
36502;BME280;25393;46.108;3.390;2023-02-28T12:48:52;98365.84;;;5.73;45.49
36502;BME280;25393;46.108;3.390;2023-02-28T12:51:26;98360.22;;;5.15;46.72
36502;BME280;25393;46.108;3.390;2023-02-28T12:54:26;98356.94;;;5.02;47.47
36502;BME280;25393;46.108;3.390;2023-02-28T12:59:56;98372.50;;;4.94;48.34
36502;BME280;25393;46.108;3.390;2023-02-28T13:10:24;98336.84;;;4.48;48.72
36502;BME280;25393;46.108;3.390;2023-02-28T13:12:53;98364.69;;;4.72;49.11
36502;BME280;25393;46.108;3.390;2023-02-28T13:17:53;98369.28;;;4.59;49.22
36502;BME280;25393;46.108;3.390;2023-02-28T13:20:23;98367.88;;;4.43;49.65
36502;BME280;25393;46.108;3.390;2023-02-28T13:22:53;98360.66;;;4.25;49.85
36502;BME280;25393;46.108;3.390;2023-02-28T13:31:23;98352.66;;;3.71;51.53
36502;BME280;25393;46.108;3.390;2023-02-28T13:38:57;98371.50;;;4.09;50.97
36502;BME280;25393;46.108;3.390;2023-02-28T13:49:28;98372.69;;;4.05;50.82
36502;BME280;25393;46.108;3.390;2023-02-28T14:01:08;98374.50;;;3.71;52.01
36502;BME280;25393;46.108;3.390;2023-02-28T14:06:33;98374.91;;;3.32;53.04
36502;BME280;25393;46.108;3.390;2023-02-28T14:09:03;98374.28;;;3.28;53.00
36502;BME280;25393;46.108;3.390;2023-02-28T14:11:39;98369.28;;;3.25;53.38
36502;BME280;25393;46.108;3.390;2023-02-28T14:14:08;98373.59;;;3.26;53.00
36502;BME280;25393;46.108;3.390;2023-02-28T14:16:48;98361.16;;;3.17;53.34
36502;BME280;25393;46.108;3.390;2023-02-28T14:19:23;98381.47;;;3.37;53.36
36502;BME280;25393;46.108;3.390;2023-02-28T14:22:15;98379.59;;;3.50;53.38
36502;BME280;25393;46.108;3.390;2023-02-28T14:27:54;98379.06;;;3.23;52.72
36502;BME280;25393;46.108;3.390;2023-02-28T14:33:42;98380.75;;;3.46;52.79
36502;BME280;25393;46.108;3.390;2023-02-28T14:36:36;98358.09;;;3.34;51.61
36502;BME280;25393;46.108;3.390;2023-02-28T14:39:14;98373.97;;;3.44;52.35
36502;BME280;25393;46.108;3.390;2023-02-28T14:41:46;98364.16;;;3.24;52.54
36502;BME280;25393;46.108;3.390;2023-02-28T14:44:20;98380.50;;;3.38;52.92
36502;BME280;25393;46.108;3.390;2023-02-28T14:47:01;98383.38;;;3.46;52.26
36502;BME280;25393;46.108;3.390;2023-02-28T14:49:36;98378.84;;;3.37;53.12
36502;BME280;25393;46.108;3.390;2023-02-28T14:52:17;98382.66;;;3.33;53.12
36502;BME280;25393;46.108;3.390;2023-02-28T14:54:53;98366.91;;;3.22;52.88
36502;BME280;25393;46.108;3.390;2023-02-28T14:57:31;98370.50;;;3.32;53.04
36502;BME280;25393;46.108;3.390;2023-02-28T15:00:23;98392.56;;;3.41;52.89
36502;BME280;25393;46.108;3.390;2023-02-28T15:02:47;98392.16;;;3.34;53.12
36502;BME280;25393;46.108;3.390;2023-02-28T15:07:47;98368.44;;;3.25;53.07
36502;BME280;25393;46.108;3.390;2023-02-28T15:10:23;98388.72;;;3.45;52.94
36502;BME280;25393;46.108;3.390;2023-02-28T15:12:58;98382.44;;;3.47;52.78
36502;BME280;25393;46.108;3.390;2023-02-28T15:15:32;98379.81;;;3.47;52.37
36502;BME280;25393;46.108;3.390;2023-02-28T15:18:49;98389.56;;;3.45;53.09
36502;BME280;25393;46.108;3.390;2023-02-28T15:21:21;98380.09;;;3.21;53.41
36502;BME280;25393;46.108;3.390;2023-02-28T15:23:53;98368.31;;;3.15;52.53
36502;BME280;25393;46.108;3.390;2023-02-28T15:26:25;98384.28;;;3.23;52.95
36502;BME280;25393;46.108;3.390;2023-02-28T15:28:59;98373.13;;;3.32;52.67
36502;BME280;25393;46.108;3.390;2023-02-28T15:31:43;98380.13;;;3.32;53.00
36502;BME280;25393;46.108;3.390;2023-02-28T15:34:37;98377.84;;;3.27;52.85
36502;BME280;25393;46.108;3.390;2023-02-28T15:37:47;98385.03;;;3.36;52.57
36502;BME280;25393;46.108;3.390;2023-02-28T15:40:27;98376.34;;;3.36;53.56
36502;BME280;25393;46.108;3.390;2023-02-28T15:45:39;98374.81;;;3.44;52.84